sensor_id;sensor_type;location;lat;lon;timestamp;pressure;altitude;pressure_sealevel;temperature;humidity
71770;BME280;66386;52.122;5.420;2023-11-19T00:01:05;100817.84;;;11.90;100.00
71770;BME280;66386;52.122;5.420;2023-11-19T00:03:32;100809.31;;;11.89;100.00
71770;BME280;66386;52.122;5.420;2023-11-19T00:06:01;100817.03;;;11.89;100.00
71770;BME280;66386;52.122;5.420;2023-11-19T00:08:27;100815.53;;;11.83;100.00
71770;BME280;66386;52.122;5.420;2023-11-19T00:10:53;100808.84;;;11.79;100.00
71770;BME280;66386;52.122;5.420;2023-11-19T00:13:20;100798.53;;;11.79;100.00
71770;BME280;66386;52.122;5.420;2023-11-19T00:15:47;100793.47;;;11.78;100.00
71770;BME280;66386;52.122;5.420;2023-11-19T00:18:14;100807.06;;;11.81;100.00
71770;BME280;66386;52.122;5.420;2023-11-19T00:20:40;100802.06;;;11.77;100.00
71770;BME280;66386;52.122;5.420;2023-11-19T00:23:07;100802.06;;;11.77;100.00
71770;BME280;66386;52.122;5.420;2023-11-19T00:25:34;100800.34;;;11.77;100.00
71770;BME280;66386;52.122;5.420;2023-11-19T00:28:01;100808.03;;;11.79;100.00
71770;BME280;66386;52.122;5.420;2023-11-19T00:30:27;100787.97;;;11.85;100.00
71770;BME280;66386;52.122;5.420;2023-11-19T00:32:53;100797.53;;;11.83;100.00
71770;BME280;66386;52.122;5.420;2023-11-19T00:35:20;100786.31;;;11.84;100.00
71770;BME280;66386;52.122;5.420;2023-11-19T00:37:47;100774.34;;;11.83;100.00
71770;BME280;66386;52.122;5.420;2023-11-19T00:40:14;100790.06;;;11.77;100.00
71770;BME280;66386;52.122;5.420;2023-11-19T00:42:42;100774.63;;;11.77;100.00
71770;BME280;66386;52.122;5.420;2023-11-19T00:45:10;100778.06;;;11.76;100.00
71770;BME280;66386;52.122;5.420;2023-11-19T00:47:39;100778.72;;;11.81;100.00
71770;BME280;66386;52.122;5.420;2023-11-19T00:50:06;100766.81;;;11.79;100.00
71770;BME280;66386;52.122;5.420;2023-11-19T00:52:36;100766.09;;;11.75;100.00
71770;BME280;66386;52.122;5.420;2023-11-19T00:55:04;100762.50;;;11.79;100.00
71770;BME280;66386;52.122;5.420;2023-11-19T00:57:31;100755.81;;;11.75;100.00
71770;BME280;66386;52.122;5.420;2023-11-19T00:59:59;100759.22;;;11.76;100.00
71770;BME280;66386;52.122;5.420;2023-11-19T01:02:26;100763.47;;;11.77;100.00
71770;BME280;66386;52.122;5.420;2023-11-19T01:04:52;100765.13;;;11.78;100.00
71770;BME280;66386;52.122;5.420;2023-11-19T01:07:19;100764.31;;;11.77;100.00
71770;BME280;66386;52.122;5.420;2023-11-19T01:09:48;100753.81;;;11.82;100.00
71770;BME280;66386;52.122;5.420;2023-11-19T01:12:14;100766.81;;;11.79;100.00
71770;BME280;66386;52.122;5.420;2023-11-19T01:14:41;100776.97;;;11.82;100.00
71770;BME280;66386;52.122;5.420;2023-11-19T01:17:07;100775.38;;;11.79;100.00
71770;BME280;66386;52.122;5.420;2023-11-19T01:19:35;100766.53;;;11.85;100.00
71770;BME280;66386;52.122;5.420;2023-11-19T01:22:02;100754.44;;;11.87;100.00
71770;BME280;66386;52.122;5.420;2023-11-19T01:24:28;100741.50;;;11.88;100.00
71770;BME280;66386;52.122;5.420;2023-11-19T01:26:57;100743.44;;;11.83;100.00
71770;BME280;66386;52.122;5.420;2023-11-19T01:29:26;100754.00;;;11.77;100.00
71770;BME280;66386;52.122;5.420;2023-11-19T01:31:52;100740.41;;;11.74;100.00
71770;BME280;66386;52.122;5.420;2023-11-19T01:34:19;100733.56;;;11.74;100.00
71770;BME280;66386;52.122;5.420;2023-11-19T01:36:46;100748.94;;;11.76;100.00
71770;BME280;66386;52.122;5.420;2023-11-19T01:39:15;100745.38;;;11.78;100.00
71770;BME280;66386;52.122;5.420;2023-11-19T01:41:46;100743.56;;;11.80;100.00
71770;BME280;66386;52.122;5.420;2023-11-19T01:44:13;100747.03;;;11.79;100.00
71770;BME280;66386;52.122;5.420;2023-11-19T01:46:44;100752.19;;;11.79;100.00
71770;BME280;66386;52.122;5.420;2023-11-19T01:49:14;100751.16;;;11.83;100.00
71770;BME280;66386;52.122;5.420;2023-11-19T01:51:42;100752.97;;;11.81;100.00
71770;BME280;66386;52.122;5.420;2023-11-19T01:54:09;100744.59;;;11.76;100.00
71770;BME280;66386;52.122;5.420;2023-11-19T01:56:37;100749.56;;;11.81;100.00
71770;BME280;66386;52.122;5.420;2023-11-19T01:59:07;100740.88;;;11.83;100.00
71770;BME280;66386;52.122;5.420;2023-11-19T02:01:36;100747.69;;;11.84;100.00
71770;BME280;66386;52.122;5.420;2023-11-19T02:04:07;100748.59;;;11.83;100.00
71770;BME280;66386;52.122;5.420;2023-11-19T02:06:37;100744.41;;;11.81;100.00
71770;BME280;66386;52.122;5.420;2023-11-19T02:09:06;100751.22;;;11.82;100.00
71770;BME280;66386;52.122;5.420;2023-11-19T02:11:34;100738.63;;;11.76;100.00
71770;BME280;66386;52.122;5.420;2023-11-19T02:14:01;100732.84;;;11.70;100.00
71770;BME280;66386;52.122;5.420;2023-11-19T02:16:29;100737.34;;;11.65;100.00
71770;BME280;66386;52.122;5.420;2023-11-19T02:18:56;100738.31;;;11.63;100.00
71770;BME280;66386;52.122;5.420;2023-11-19T02:21:23;100746.09;;;11.61;100.00
71770;BME280;66386;52.122;5.420;2023-11-19T02:23:49;100749.84;;;11.54;100.00
71770;BME280;66386;52.122;5.420;2023-11-19T02:28:44;100760.00;;;11.57;100.00
71770;BME280;66386;52.122;5.420;2023-11-19T02:31:11;100759.41;;;11.50;100.00
71770;BME280;66386;52.122;5.420;2023-11-19T02:33:38;100770.84;;;11.45;100.00
71770;BME280;66386;52.122;5.420;2023-11-19T02:36:06;100758.25;;;11.37;100.00
71770;BME280;66386;52.122;5.420;2023-11-19T02:38:36;100772.94;;;11.35;100.00
71770;BME280;66386;52.122;5.420;2023-11-19T02:41:04;100761.91;;;11.31;100.00
71770;BME280;66386;52.122;5.420;2023-11-19T02:43:35;100756.00;;;11.29;100.00
71770;BME280;66386;52.122;5.420;2023-11-19T02:46:05;100762.19;;;11.25;100.00
71770;BME280;66386;52.122;5.420;2023-11-19T02:48:37;100751.94;;;11.24;100.00
71770;BME280;66386;52.122;5.420;2023-11-19T02:51:04;100746.19;;;11.18;100.00
71770;BME280;66386;52.122;5.420;2023-11-19T02:53:32;100745.44;;;11.15;100.00
71770;BME280;66386;52.122;5.420;2023-11-19T02:55:59;100736.09;;;11.12;100.00
71770;BME280;66386;52.122;5.420;2023-11-19T02:58:32;100754.13;;;11.12;100.00
71770;BME280;66386;52.122;5.420;2023-11-19T03:00:58;100753.34;;;11.10;100.00
71770;BME280;66386;52.122;5.420;2023-11-19T03:03:27;100755.94;;;11.10;100.00
71770;BME280;66386;52.122;5.420;2023-11-19T03:06:05;100739.72;;;11.08;100.00
71770;BME280;66386;52.122;5.420;2023-11-19T03:08:34;100753.63;;;11.04;100.00
71770;BME280;66386;52.122;5.420;2023-11-19T03:11:01;100739.00;;;11.05;100.00
71770;BME280;66386;52.122;5.420;2023-11-19T03:13:28;100739.97;;;11.02;100.00
71770;BME280;66386;52.122;5.420;2023-11-19T03:15:54;100745.34;;;10.96;100.00
71770;BME280;66386;52.122;5.420;2023-11-19T03:18:21;100756.72;;;10.90;100.00
71770;BME280;66386;52.122;5.420;2023-11-19T03:20:48;100748.38;;;10.85;100.00
71770;BME280;66386;52.122;5.420;2023-11-19T03:23:16;100754.56;;;10.79;100.00
71770;BME280;66386;52.122;5.420;2023-11-19T03:25:42;100748.75;;;10.74;100.00
71770;BME280;66386;52.122;5.420;2023-11-19T03:28:09;100758.41;;;10.69;100.00
71770;BME280;66386;52.122;5.420;2023-11-19T03:30:38;100749.06;;;10.67;100.00
71770;BME280;66386;52.122;5.420;2023-11-19T03:33:04;100745.94;;;10.58;100.00
71770;BME280;66386;52.122;5.420;2023-11-19T03:35:31;100749.44;;;10.57;100.00
71770;BME280;66386;52.122;5.420;2023-11-19T03:37:59;100735.03;;;10.53;100.00
71770;BME280;66386;52.122;5.420;2023-11-19T03:40:28;100729.81;;;10.55;100.00
71770;BME280;66386;52.122;5.420;2023-11-19T03:42:57;100725.56;;;10.54;100.00
71770;BME280;66386;52.122;5.420;2023-11-19T03:45:24;100716.19;;;10.53;100.00
71770;BME280;66386;52.122;5.420;2023-11-19T03:47:51;100722.50;;;10.44;100.00
71770;BME280;66386;52.122;5.420;2023-11-19T03:50:18;100733.19;;;10.33;100.00
71770;BME280;66386;52.122;5.420;2023-11-19T03:52:47;100724.81;;;10.28;100.00
71770;BME280;66386;52.122;5.420;2023-11-19T03:55:13;100733.22;;;10.31;100.00
71770;BME280;66386;52.122;5.420;2023-11-19T03:57:40;100753.00;;;10.29;100.00
71770;BME280;66386;52.122;5.420;2023-11-19T04:00:07;100751.38;;;10.27;100.00
71770;BME280;66386;52.122;5.420;2023-11-19T04:02:37;100747.31;;;10.21;100.00
71770;BME280;66386;52.122;5.420;2023-11-19T04:05:04;100752.56;;;10.18;100.00
71770;BME280;66386;52.122;5.420;2023-11-19T04:07:31;100749.31;;;10.13;100.00
71770;BME280;66386;52.122;5.420;2023-11-19T04:09:59;100761.28;;;10.14;100.00
71770;BME280;66386;52.122;5.420;2023-11-19T04:12:25;100762.28;;;10.10;100.00
71770;BME280;66386;52.122;5.420;2023-11-19T04:14:52;100755.38;;;10.12;100.00
71770;BME280;66386;52.122;5.420;2023-11-19T04:17:22;100763.06;;;10.12;100.00
71770;BME280;66386;52.122;5.420;2023-11-19T04:19:49;100763.84;;;10.14;100.00
71770;BME280;66386;52.122;5.420;2023-11-19T04:22:16;100761.38;;;10.11;100.00
71770;BME280;66386;52.122;5.420;2023-11-19T04:24:43;100773.47;;;10.07;100.00
71770;BME280;66386;52.122;5.420;2023-11-19T04:27:12;100771.59;;;10.12;100.00
71770;BME280;66386;52.122;5.420;2023-11-19T04:29:39;100765.63;;;10.12;100.00
71770;BME280;66386;52.122;5.420;2023-11-19T04:32:06;100767.47;;;10.08;100.00
71770;BME280;66386;52.122;5.420;2023-11-19T04:34:33;100758.03;;;10.09;100.00
71770;BME280;66386;52.122;5.420;2023-11-19T04:37:00;100761.50;;;10.08;100.00
71770;BME280;66386;52.122;5.420;2023-11-19T04:39:32;100758.94;;;10.08;100.00
71770;BME280;66386;52.122;5.420;2023-11-19T04:41:59;100756.31;;;10.09;100.00
71770;BME280;66386;52.122;5.420;2023-11-19T04:44:25;100759.03;;;10.05;100.00
71770;BME280;66386;52.122;5.420;2023-11-19T04:46:52;100764.31;;;10.00;100.00
71770;BME280;66386;52.122;5.420;2023-11-19T04:49:18;100773.88;;;9.96;100.00
71770;BME280;66386;52.122;5.420;2023-11-19T04:51:45;100767.91;;;9.96;100.00
71770;BME280;66386;52.122;5.420;2023-11-19T04:54:14;100766.28;;;9.93;100.00
71770;BME280;66386;52.122;5.420;2023-11-19T04:56:45;100760.25;;;9.94;100.00
71770;BME280;66386;52.122;5.420;2023-11-19T04:59:12;100751.00;;;9.90;100.00
71770;BME280;66386;52.122;5.420;2023-11-19T05:01:39;100760.56;;;9.85;100.00
71770;BME280;66386;52.122;5.420;2023-11-19T05:04:07;100755.44;;;9.85;100.00
71770;BME280;66386;52.122;5.420;2023-11-19T05:06:34;100758.00;;;9.85;100.00
71770;BME280;66386;52.122;5.420;2023-11-19T05:09:01;100759.00;;;9.81;100.00
71770;BME280;66386;52.122;5.420;2023-11-19T05:11:33;100775.38;;;9.78;100.00
71770;BME280;66386;52.122;5.420;2023-11-19T05:14:02;100776.97;;;9.81;100.00
71770;BME280;66386;52.122;5.420;2023-11-19T05:16:31;100772.69;;;9.82;100.00
71770;BME280;66386;52.122;5.420;2023-11-19T05:18:58;100782.09;;;9.81;100.00
71770;BME280;66386;52.122;5.420;2023-11-19T05:21:25;100770.84;;;9.85;100.00
71770;BME280;66386;52.122;5.420;2023-11-19T05:23:51;100764.06;;;9.84;100.00
71770;BME280;66386;52.122;5.420;2023-11-19T05:26:22;100774.50;;;9.78;100.00
71770;BME280;66386;52.122;5.420;2023-11-19T05:28:49;100761.84;;;9.73;100.00
71770;BME280;66386;52.122;5.420;2023-11-19T05:31:17;100759.38;;;9.70;100.00
71770;BME280;66386;52.122;5.420;2023-11-19T05:33:44;100762.06;;;9.67;100.00
71770;BME280;66386;52.122;5.420;2023-11-19T05:36:12;100769.88;;;9.64;100.00
71770;BME280;66386;52.122;5.420;2023-11-19T05:38:41;100768.41;;;9.57;100.00
71770;BME280;66386;52.122;5.420;2023-11-19T05:41:07;100768.44;;;9.55;100.00
71770;BME280;66386;52.122;5.420;2023-11-19T05:43:34;100771.06;;;9.54;100.00
71770;BME280;66386;52.122;5.420;2023-11-19T05:46:01;100778.72;;;9.55;100.00
71770;BME280;66386;52.122;5.420;2023-11-19T05:48:43;100767.50;;;9.58;100.00
71770;BME280;66386;52.122;5.420;2023-11-19T05:51:11;100777.66;;;9.61;100.00
71770;BME280;66386;52.122;5.420;2023-11-19T05:53:38;100771.78;;;9.57;100.00
71770;BME280;66386;52.122;5.420;2023-11-19T05:56:05;100765.00;;;9.56;100.00
71770;BME280;66386;52.122;5.420;2023-11-19T05:58:33;100774.41;;;9.56;100.00
71770;BME280;66386;52.122;5.420;2023-11-19T06:01:00;100771.84;;;9.56;100.00
71770;BME280;66386;52.122;5.420;2023-11-19T06:03:27;100776.97;;;9.56;100.00
71770;BME280;66386;52.122;5.420;2023-11-19T06:05:54;100778.56;;;9.60;100.00
71770;BME280;66386;52.122;5.420;2023-11-19T06:08:21;100774.31;;;9.59;100.00
71770;BME280;66386;52.122;5.420;2023-11-19T06:10:47;100778.72;;;9.55;100.00
71770;BME280;66386;52.122;5.420;2023-11-19T06:13:16;100770.97;;;9.57;100.00
71770;BME280;66386;52.122;5.420;2023-11-19T06:15:43;100769.13;;;9.60;100.00
71770;BME280;66386;52.122;5.420;2023-11-19T06:18:09;100759.91;;;9.55;100.00
71770;BME280;66386;52.122;5.420;2023-11-19T06:20:38;100769.22;;;9.57;100.00
71770;BME280;66386;52.122;5.420;2023-11-19T06:23:08;100773.63;;;9.54;100.00
71770;BME280;66386;52.122;5.420;2023-11-19T06:25:35;100778.06;;;9.49;100.00
71770;BME280;66386;52.122;5.420;2023-11-19T06:28:02;100774.63;;;9.50;100.00
71770;BME280;66386;52.122;5.420;2023-11-19T06:30:30;100780.63;;;9.49;100.00
71770;BME280;66386;52.122;5.420;2023-11-19T06:32:59;100773.09;;;9.44;100.00
71770;BME280;66386;52.122;5.420;2023-11-19T06:35:26;100785.81;;;9.47;100.00
71770;BME280;66386;52.122;5.420;2023-11-19T06:37:53;100794.16;;;9.54;100.00
71770;BME280;66386;52.122;5.420;2023-11-19T06:40:19;100790.59;;;9.58;100.00
71770;BME280;66386;52.122;5.420;2023-11-19T06:42:47;100787.19;;;9.57;100.00
71770;BME280;66386;52.122;5.420;2023-11-19T06:45:13;100789.91;;;9.53;100.00
71770;BME280;66386;52.122;5.420;2023-11-19T06:47:39;100789.91;;;9.53;100.00
71770;BME280;66386;52.122;5.420;2023-11-19T06:50:07;100801.00;;;9.53;100.00
71770;BME280;66386;52.122;5.420;2023-11-19T06:52:33;100802.00;;;9.49;100.00
71770;BME280;66386;52.122;5.420;2023-11-19T06:55:00;100806.38;;;9.46;100.00
71770;BME280;66386;52.122;5.420;2023-11-19T06:57:30;100796.25;;;9.42;100.00
71770;BME280;66386;52.122;5.420;2023-11-19T06:59:58;100808.22;;;9.42;100.00
71770;BME280;66386;52.122;5.420;2023-11-19T07:02:25;100810.91;;;9.37;100.00
71770;BME280;66386;52.122;5.420;2023-11-19T07:04:53;100809.25;;;9.36;100.00
71770;BME280;66386;52.122;5.420;2023-11-19T07:07:21;100815.28;;;9.35;100.00
71770;BME280;66386;52.122;5.420;2023-11-19T07:09:47;100811.72;;;9.39;100.00
71770;BME280;66386;52.122;5.420;2023-11-19T07:12:14;100812.47;;;9.43;100.00
71770;BME280;66386;52.122;5.420;2023-11-19T07:14:41;100811.72;;;9.39;100.00
71770;BME280;66386;52.122;5.420;2023-11-19T07:17:08;100826.19;;;9.42;100.00
71770;BME280;66386;52.122;5.420;2023-11-19T07:19:37;100823.56;;;9.43;100.00
71770;BME280;66386;52.122;5.420;2023-11-19T07:22:05;100822.66;;;9.44;100.00
71770;BME280;66386;52.122;5.420;2023-11-19T07:24:33;100830.34;;;9.44;100.00
71770;BME280;66386;52.122;5.420;2023-11-19T07:26:59;100835.44;;;9.46;100.00
71770;BME280;66386;52.122;5.420;2023-11-19T07:29:27;100835.50;;;9.44;100.00
71770;BME280;66386;52.122;5.420;2023-11-19T07:31:55;100829.38;;;9.49;100.00
71770;BME280;66386;52.122;5.420;2023-11-19T07:34:22;100844.66;;;9.52;100.00
71770;BME280;66386;52.122;5.420;2023-11-19T07:36:49;100836.09;;;9.53;100.00
71770;BME280;66386;52.122;5.420;2023-11-19T07:39:16;100840.28;;;9.55;100.00
71770;BME280;66386;52.122;5.420;2023-11-19T07:41:42;100841.22;;;9.53;100.00
71770;BME280;66386;52.122;5.420;2023-11-19T07:44:09;100831.84;;;9.52;100.00
71770;BME280;66386;52.122;5.420;2023-11-19T07:46:35;100849.81;;;9.52;100.00
71770;BME280;66386;52.122;5.420;2023-11-19T07:49:02;100842.91;;;9.54;100.00
71770;BME280;66386;52.122;5.420;2023-11-19T07:51:29;100841.13;;;9.56;100.00
71770;BME280;66386;52.122;5.420;2023-11-19T07:53:55;100837.72;;;9.55;100.00
71770;BME280;66386;52.122;5.420;2023-11-19T07:56:22;100841.94;;;9.58;100.00
71770;BME280;66386;52.122;5.420;2023-11-19T07:58:48;100831.47;;;9.64;100.00
71770;BME280;66386;52.122;5.420;2023-11-19T08:01:15;100839.16;;;9.64;100.00
71770;BME280;66386;52.122;5.420;2023-11-19T08:03:42;100833.16;;;9.64;100.00
71770;BME280;66386;52.122;5.420;2023-11-19T08:06:24;100828.00;;;9.65;100.00
71770;BME280;66386;52.122;5.420;2023-11-19T08:08:51;100830.31;;;9.73;100.00
71770;BME280;66386;52.122;5.420;2023-11-19T08:11:18;100826.69;;;9.78;100.00
71770;BME280;66386;52.122;5.420;2023-11-19T08:13:46;100838.50;;;9.84;100.00
71770;BME280;66386;52.122;5.420;2023-11-19T08:16:13;100839.31;;;9.85;100.00
71770;BME280;66386;52.122;5.420;2023-11-19T08:18:44;100831.63;;;9.85;100.00
71770;BME280;66386;52.122;5.420;2023-11-19T08:21:10;100842.63;;;9.88;100.00
71770;BME280;66386;52.122;5.420;2023-11-19T08:23:37;100841.63;;;9.92;100.00
71770;BME280;66386;52.122;5.420;2023-11-19T08:26:05;100844.94;;;9.96;100.00
71770;BME280;66386;52.122;5.420;2023-11-19T08:28:32;100832.81;;;10.00;100.00
71770;BME280;66386;52.122;5.420;2023-11-19T08:31:01;100831.13;;;9.99;100.00
71770;BME280;66386;52.122;5.420;2023-11-19T08:33:27;100837.63;;;10.09;100.00
71770;BME280;66386;52.122;5.420;2023-11-19T08:35:54;100838.19;;;10.42;100.00
71770;BME280;66386;52.122;5.420;2023-11-19T08:38:21;100849.88;;;10.51;100.00
71770;BME280;66386;52.122;5.420;2023-11-19T08:40:50;100845.13;;;10.40;100.00
71770;BME280;66386;52.122;5.420;2023-11-19T08:43:18;100842.63;;;10.39;100.00
71770;BME280;66386;52.122;5.420;2023-11-19T08:45:44;100850.97;;;10.45;100.00
71770;BME280;66386;52.122;5.420;2023-11-19T08:48:11;100844.25;;;10.41;100.00
71770;BME280;66386;52.122;5.420;2023-11-19T08:50:38;100850.16;;;10.43;100.00
71770;BME280;66386;52.122;5.420;2023-11-19T08:53:05;100860.38;;;10.45;100.00
71770;BME280;66386;52.122;5.420;2023-11-19T08:55:33;100852.72;;;10.43;100.00
71770;BME280;66386;52.122;5.420;2023-11-19T08:58:00;100846.75;;;10.43;100.00
71770;BME280;66386;52.122;5.420;2023-11-19T09:00:27;100847.53;;;10.45;100.00
71770;BME280;66386;52.122;5.420;2023-11-19T09:02:53;100857.44;;;10.56;100.00
71770;BME280;66386;52.122;5.420;2023-11-19T09:05:20;100844.00;;;10.71;100.00
71770;BME280;66386;52.122;5.420;2023-11-19T09:07:47;100850.34;;;10.85;100.00
71770;BME280;66386;52.122;5.420;2023-11-19T09:10:14;100845.94;;;10.88;100.00
71770;BME280;66386;52.122;5.420;2023-11-19T09:12:40;100845.22;;;10.85;100.00
71770;BME280;66386;52.122;5.420;2023-11-19T09:15:07;100846.94;;;10.84;100.00
71770;BME280;66386;52.122;5.420;2023-11-19T09:17:36;100850.34;;;10.85;100.00
71770;BME280;66386;52.122;5.420;2023-11-19T09:20:03;100846.78;;;10.89;100.00
71770;BME280;66386;52.122;5.420;2023-11-19T09:22:30;100846.78;;;10.89;100.00
71770;BME280;66386;52.122;5.420;2023-11-19T09:24:56;100846.00;;;10.87;100.00
71770;BME280;66386;52.122;5.420;2023-11-19T09:27:26;100858.06;;;10.85;100.00
71770;BME280;66386;52.122;5.420;2023-11-19T09:29:52;100843.63;;;10.82;100.00
71770;BME280;66386;52.122;5.420;2023-11-19T09:32:25;100854.72;;;10.82;100.00
71770;BME280;66386;52.122;5.420;2023-11-19T09:34:52;100853.72;;;10.87;100.00
71770;BME280;66386;52.122;5.420;2023-11-19T09:37:18;100845.16;;;10.86;100.00
71770;BME280;66386;52.122;5.420;2023-11-19T09:39:48;100857.94;;;10.88;100.00
71770;BME280;66386;52.122;5.420;2023-11-19T09:42:14;100853.34;;;10.96;100.00
71770;BME280;66386;52.122;5.420;2023-11-19T09:44:42;100855.50;;;11.07;100.00
71770;BME280;66386;52.122;5.420;2023-11-19T09:47:11;100851.94;;;11.11;100.00
71770;BME280;66386;52.122;5.420;2023-11-19T09:49:38;100852.66;;;11.14;100.00
71770;BME280;66386;52.122;5.420;2023-11-19T09:52:05;100849.22;;;11.14;100.00
71770;BME280;66386;52.122;5.420;2023-11-19T09:54:32;100832.13;;;11.13;100.00
71770;BME280;66386;52.122;5.420;2023-11-19T09:57:01;100840.63;;;11.15;100.00
71770;BME280;66386;52.122;5.420;2023-11-19T09:59:30;100838.78;;;11.18;100.00
71770;BME280;66386;52.122;5.420;2023-11-19T10:01:59;100842.19;;;11.19;100.00
71770;BME280;66386;52.122;5.420;2023-11-19T10:04:29;100833.44;;;11.23;100.00
71770;BME280;66386;52.122;5.420;2023-11-19T10:06:56;100834.75;;;11.33;100.00
71770;BME280;66386;52.122;5.420;2023-11-19T10:09:23;100833.34;;;11.47;100.00
71770;BME280;66386;52.122;5.420;2023-11-19T10:11:49;100822.94;;;11.50;100.00
71770;BME280;66386;52.122;5.420;2023-11-19T10:14:16;100824.22;;;11.60;100.00
71770;BME280;66386;52.122;5.420;2023-11-19T10:16:45;100823.91;;;11.68;100.00
71770;BME280;66386;52.122;5.420;2023-11-19T10:19:19;100824.28;;;11.79;100.00
71770;BME280;66386;52.122;5.420;2023-11-19T10:21:46;100815.13;;;11.93;100.00
71770;BME280;66386;52.122;5.420;2023-11-19T10:24:13;100801.13;;;12.00;100.00
71770;BME280;66386;52.122;5.420;2023-11-19T10:26:56;100801.22;;;12.17;100.00
71770;BME280;66386;52.122;5.420;2023-11-19T10:29:23;100806.81;;;12.27;100.00
71770;BME280;66386;52.122;5.420;2023-11-19T10:31:57;100808.34;;;12.31;100.00
71770;BME280;66386;52.122;5.420;2023-11-19T10:34:44;100807.19;;;12.38;100.00
71770;BME280;66386;52.122;5.420;2023-11-19T10:37:28;100806.25;;;12.39;99.36
71770;BME280;66386;52.122;5.420;2023-11-19T10:39:56;100818.53;;;12.34;99.21
71770;BME280;66386;52.122;5.420;2023-11-19T10:42:22;100798.94;;;12.30;97.68
71770;BME280;66386;52.122;5.420;2023-11-19T10:44:49;100789.53;;;12.29;98.31
71770;BME280;66386;52.122;5.420;2023-11-19T10:47:18;100813.50;;;12.31;97.49
71770;BME280;66386;52.122;5.420;2023-11-19T10:49:45;100807.25;;;12.37;97.10
71770;BME280;66386;52.122;5.420;2023-11-19T10:52:17;100804.53;;;12.40;95.96
71770;BME280;66386;52.122;5.420;2023-11-19T10:54:49;100803.00;;;12.55;97.33
71770;BME280;66386;52.122;5.420;2023-11-19T10:57:20;100806.00;;;12.65;96.77
71770;BME280;66386;52.122;5.420;2023-11-19T10:59:49;100797.97;;;12.71;96.41
71770;BME280;66386;52.122;5.420;2023-11-19T11:02:18;100787.88;;;12.66;94.98
71770;BME280;66386;52.122;5.420;2023-11-19T11:04:47;100799.78;;;12.69;94.40
71770;BME280;66386;52.122;5.420;2023-11-19T11:07:15;100796.44;;;12.67;94.96
71770;BME280;66386;52.122;5.420;2023-11-19T11:09:42;100808.56;;;12.65;95.06
71770;BME280;66386;52.122;5.420;2023-11-19T11:12:09;100809.53;;;12.62;95.58
71770;BME280;66386;52.122;5.420;2023-11-19T11:14:37;100813.72;;;12.65;96.04
71770;BME280;66386;52.122;5.420;2023-11-19T11:17:04;100810.50;;;12.60;94.02
71770;BME280;66386;52.122;5.420;2023-11-19T11:19:35;100811.28;;;12.62;94.03
71770;BME280;66386;52.122;5.420;2023-11-19T11:22:02;100802.63;;;12.63;94.35
71770;BME280;66386;52.122;5.420;2023-11-19T11:24:41;100810.28;;;12.64;94.09
71770;BME280;66386;52.122;5.420;2023-11-19T11:27:43;100799.44;;;12.57;94.44
71770;BME280;66386;52.122;5.420;2023-11-19T11:38:08;100803.81;;;12.55;95.36
71770;BME280;66386;52.122;5.420;2023-11-19T11:40:35;100795.34;;;12.53;95.82
71770;BME280;66386;52.122;5.420;2023-11-19T11:49:05;100800.47;;;12.34;95.75
71770;BME280;66386;52.122;5.420;2023-11-19T11:59:40;100786.97;;;12.48;95.76
71770;BME280;66386;52.122;5.420;2023-11-19T12:02:10;100786.22;;;12.46;95.06
71770;BME280;66386;52.122;5.420;2023-11-19T12:04:39;100793.94;;;12.46;94.93
71770;BME280;66386;52.122;5.420;2023-11-19T12:07:17;100794.00;;;12.45;95.14
71770;BME280;66386;52.122;5.420;2023-11-19T12:09:51;100781.19;;;12.43;95.52
71770;BME280;66386;52.122;5.420;2023-11-19T12:12:22;100777.06;;;12.39;94.52
71770;BME280;66386;52.122;5.420;2023-11-19T12:20:01;100776.94;;;12.42;95.13
71770;BME280;66386;52.122;5.420;2023-11-19T12:22:28;100776.78;;;12.45;95.47
71770;BME280;66386;52.122;5.420;2023-11-19T12:24:54;100759.78;;;12.41;95.09
71770;BME280;66386;52.122;5.420;2023-11-19T12:27:21;100769.69;;;12.31;94.54
71770;BME280;66386;52.122;5.420;2023-11-19T12:29:51;100777.50;;;12.30;95.34
71770;BME280;66386;52.122;5.420;2023-11-19T12:32:17;100768.03;;;12.30;94.99
71770;BME280;66386;52.122;5.420;2023-11-19T12:34:45;100783.56;;;12.29;95.17
71770;BME280;66386;52.122;5.420;2023-11-19T12:37:11;100784.53;;;12.26;95.87
71770;BME280;66386;52.122;5.420;2023-11-19T12:39:38;100781.13;;;12.26;95.26
71770;BME280;66386;52.122;5.420;2023-11-19T12:42:05;100778.53;;;12.26;95.17
71770;BME280;66386;52.122;5.420;2023-11-19T12:44:31;100781.13;;;12.26;94.93
71770;BME280;66386;52.122;5.420;2023-11-19T12:47:06;100788.63;;;12.30;94.31
71770;BME280;66386;52.122;5.420;2023-11-19T12:49:33;100782.38;;;12.36;94.75
71770;BME280;66386;52.122;5.420;2023-11-19T12:52:00;100780.56;;;12.38;94.79
71770;BME280;66386;52.122;5.420;2023-11-19T12:54:37;100784.06;;;12.37;94.51
71770;BME280;66386;52.122;5.420;2023-11-19T12:57:04;100786.56;;;12.38;93.85
71770;BME280;66386;52.122;5.420;2023-11-19T12:59:31;100772.69;;;12.41;94.37
71770;BME280;66386;52.122;5.420;2023-11-19T13:01:58;100783.78;;;12.43;94.79
71770;BME280;66386;52.122;5.420;2023-11-19T13:04:29;100774.34;;;12.42;94.79
71770;BME280;66386;52.122;5.420;2023-11-19T13:06:58;100777.06;;;12.39;95.16
71770;BME280;66386;52.122;5.420;2023-11-19T13:09:27;100782.44;;;12.34;95.19
71770;BME280;66386;52.122;5.420;2023-11-19T13:11:55;100780.97;;;12.29;95.29
71770;BME280;66386;52.122;5.420;2023-11-19T13:14:22;100771.63;;;12.26;94.87
71770;BME280;66386;52.122;5.420;2023-11-19T13:16:49;100781.25;;;12.22;95.89
71770;BME280;66386;52.122;5.420;2023-11-19T13:19:16;100775.53;;;12.16;96.29